Time;durP1;ratioP1;P1;durP2;ratioP2;P2;SDS_P1;SDS_P2;PMS_P1;PMS_P2;Temp;Humidity;BMP_temperature;BMP_pressure;BME280_temperature;BME280_humidity;BME280_pressure;Samples;Min_cycle;Max_cycle;Signal;HPM_P1;HPM_P2
2022/10/01 00:01:58;;;;;;;6.67;1.53;;;21.00;99.90;;;;;;5076988;28;20179;-71
2022/10/01 00:04:27;;;;;;;6.60;1.57;;;21.30;99.90;;;;;;5095413;28;20650;-70
2022/10/01 00:06:58;;;;;;;4.43;1.20;;;20.70;99.90;;;;;;5095016;28;20248;-69
2022/10/01 00:09:26;;;;;;;5.43;1.13;;;20.80;99.90;;;;;;5095613;28;20183;-69
2022/10/01 00:11:55;;;;;;;3.93;1.17;;;20.70;99.90;;;;;;5095026;28;20178;-70
2022/10/01 00:14:23;;;;;;;4.03;1.37;;;20.40;99.90;;;;;;5095045;28;20621;-70
2022/10/01 00:16:50;;;;;;;9.73;1.27;;;20.00;99.90;;;;;;5095051;28;20171;-69
2022/10/01 00:19:18;;;;;;;10.67;1.60;;;19.30;99.90;;;;;;5094899;28;20218;-69
2022/10/01 00:21:46;;;;;;;8.37;1.77;;;18.80;99.90;;;;;;5094983;28;20186;-70
2022/10/01 00:24:14;;;;;;;8.00;1.73;;;18.60;99.90;;;;;;5095213;28;20260;-72
2022/10/01 00:26:44;;;;;;;6.10;1.60;;;18.30;99.90;;;;;;5076703;28;20191;-73
2022/10/01 00:29:14;;;;;;;8.50;1.57;;;18.40;99.90;;;;;;5095108;28;20217;-70
2022/10/01 00:31:42;;;;;;;6.73;1.53;;;18.40;99.90;;;;;;5094903;28;20179;-73
2022/10/01 00:34:14;;;;;;;7.07;1.27;;;18.40;99.90;;;;;;5095051;28;20772;-69
2022/10/01 00:36:48;;;;;;;5.37;1.67;;;18.20;99.90;;;;;;5094850;28;20524;-70
2022/10/01 00:39:16;;;;;;;5.30;1.40;;;17.90;99.90;;;;;;5076497;28;20621;-71
2022/10/01 00:41:44;;;;;;;6.40;1.17;;;17.70;99.90;;;;;;5094857;28;20170;-72
2022/10/01 00:44:27;;;;;;;7.57;1.47;;;18.00;99.90;;;;;;5094662;28;20183;-70
2022/10/01 00:46:59;;;;;;;8.47;1.50;;;18.40;99.90;;;;;;5076355;28;20648;-73
2022/10/01 00:49:30;;;;;;;5.50;1.50;;;18.80;99.90;;;;;;5094634;28;20717;-72
2022/10/01 00:52:01;;;;;;;5.77;1.77;;;18.70;99.90;;;;;;5094683;28;20224;-68
2022/10/01 00:54:42;;;;;;;6.20;1.50;;;18.60;99.90;;;;;;5076558;28;20187;-69
2022/10/01 00:57:10;;;;;;;5.13;1.40;;;18.40;99.90;;;;;;5094465;28;20171;-70
2022/10/01 00:59:38;;;;;;;4.17;1.17;;;18.40;99.90;;;;;;5093974;28;20231;-74
2022/10/01 01:02:06;;;;;;;4.93;1.07;;;18.40;99.90;;;;;;5075952;28;20198;-69
2022/10/01 01:04:34;;;;;;;9.53;1.67;;;18.30;99.90;;;;;;5094884;28;20205;-69
2022/10/01 01:07:05;;;;;;;10.63;1.70;;;18.20;99.90;;;;;;5094267;28;20178;-70
2022/10/01 01:09:47;;;;;;;5.20;1.50;;;17.50;99.90;;;;;;5094187;28;20175;-69
2022/10/01 01:12:27;;;;;;;8.30;1.73;;;16.90;99.90;;;;;;5094059;28;20171;-72
2022/10/01 01:15:15;;;;;;;9.77;1.40;;;16.50;99.90;;;;;;5094164;28;20667;-69
2022/10/01 01:17:43;;;;;;;8.20;1.80;;;16.50;99.90;;;;;;5093611;28;20169;-70
2022/10/01 01:20:20;;;;;;;8.53;1.47;;;16.60;99.90;;;;;;5093649;28;20226;-69
2022/10/01 01:23:11;;;;;;;8.43;1.80;;;17.00;99.90;;;;;;5094353;28;20631;-72
2022/10/01 01:26:11;;;;;;;6.83;1.37;;;17.40;99.90;;;;;;5094357;28;20649;-68
2022/10/01 01:28:47;;;;;;;7.20;1.20;;;17.80;99.90;;;;;;5053913;28;20186;-69
2022/10/01 01:31:21;;;;;;;6.67;1.30;;;18.00;99.90;;;;;;5093964;28;20181;-69
2022/10/01 01:33:51;;;;;;;6.10;1.00;;;18.10;99.90;;;;;;5093810;28;20221;-69
2022/10/01 01:36:35;;;;;;;10.03;1.63;;;18.60;99.90;;;;;;5094099;28;20546;-69
2022/10/01 01:39:07;;;;;;;6.60;1.50;;;18.80;99.90;;;;;;5093509;28;20206;-68
2022/10/01 01:41:41;;;;;;;3.57;1.17;;;19.50;99.90;;;;;;5093916;28;20168;-69
2022/10/01 01:44:11;;;;;;;4.30;1.03;;;19.90;99.90;;;;;;5075672;28;20240;-69
2022/10/01 01:46:43;;;;;;;7.50;1.80;;;20.30;99.90;;;;;;5093835;28;20180;-71
2022/10/01 01:49:15;;;;;;;5.93;1.67;;;20.70;99.90;;;;;;5093606;28;20263;-70
2022/10/01 01:52:14;;;;;;;5.10;1.20;;;20.60;99.90;;;;;;5093463;28;20234;-70
2022/10/01 01:54:44;;;;;;;5.83;1.13;;;19.90;99.90;;;;;;5093764;28;20175;-68
2022/10/01 01:57:12;;;;;;;3.70;1.07;;;19.40;99.90;;;;;;5093521;28;20185;-73
2022/10/01 01:59:43;;;;;;;5.60;1.53;;;19.00;99.90;;;;;;5093038;28;20269;-70
2022/10/01 02:02:25;;;;;;;5.43;1.20;;;18.80;99.90;;;;;;5093260;28;20178;-71
2022/10/01 02:05:01;;;;;;;5.03;1.10;;;18.70;99.90;;;;;;5093434;28;20177;-71
2022/10/01 02:07:43;;;;;;;5.63;1.63;;;18.70;99.90;;;;;;5093255;28;20592;-74
2022/10/01 02:10:20;;;;;;;4.87;1.13;;;18.70;99.90;;;;;;5093242;28;20172;-69
2022/10/01 02:13:09;;;;;;;6.47;1.27;;;18.80;99.90;;;;;;5093848;28;20175;-69
2022/10/01 02:15:37;;;;;;;5.63;1.40;;;18.70;99.90;;;;;;5093255;28;20255;-71
2022/10/01 02:18:33;;;;;;;4.67;1.70;;;18.60;99.90;;;;;;5093055;28;20183;-69
2022/10/01 02:21:01;;;;;;;6.03;1.77;;;19.00;99.90;;;;;;5066949;28;20293;-70
2022/10/01 02:23:36;;;;;;;3.70;1.13;;;19.00;99.90;;;;;;5093333;28;20187;-70
2022/10/01 02:26:09;;;;;;;5.97;1.37;;;19.10;99.90;;;;;;5093136;28;20164;-70
2022/10/01 02:28:40;;;;;;;3.30;1.40;;;19.30;99.90;;;;;;5093147;28;20256;-74
2022/10/01 02:31:10;;;;;;;5.07;1.20;;;19.30;99.90;;;;;;5092948;28;20176;-70
2022/10/01 02:33:40;;;;;;;4.53;1.43;;;19.40;99.90;;;;;;5093416;28;20175;-69
2022/10/01 02:36:10;;;;;;;5.10;1.10;;;19.10;99.90;;;;;;5093085;28;20174;-70
2022/10/01 02:38:43;;;;;;;6.53;1.17;;;19.20;99.90;;;;;;5092923;28;20662;-71
2022/10/01 02:41:16;;;;;;;4.93;1.10;;;19.10;99.90;;;;;;5093898;28;20707;-69
2022/10/01 02:43:58;;;;;;;5.00;1.40;;;19.00;99.90;;;;;;5096821;28;20209;-71
2022/10/01 02:47:06;;;;;;;5.83;1.30;;;18.90;99.90;;;;;;5078593;28;20175;-70
2022/10/01 02:49:35;;;;;;;3.80;1.17;;;18.80;99.90;;;;;;5075682;28;20199;-69
2022/10/01 02:52:13;;;;;;;4.50;1.53;;;18.70;99.90;;;;;;5096610;28;20221;-69
2022/10/01 02:54:58;;;;;;;7.20;1.60;;;18.50;99.90;;;;;;5096641;28;20183;-69
2022/10/01 02:57:26;;;;;;;3.23;1.10;;;18.70;99.90;;;;;;5096501;28;20636;-70
2022/10/01 03:00:15;;;;;;;8.53;1.47;;;18.80;99.90;;;;;;5096099;28;20227;-69
2022/10/01 03:02:43;;;;;;;9.27;1.80;;;19.20;99.90;;;;;;5096565;28;20174;-69
2022/10/01 03:05:11;;;;;;;4.70;1.20;;;19.70;99.90;;;;;;5096410;28;20199;-70
2022/10/01 03:07:39;;;;;;;4.67;1.23;;;20.30;99.90;;;;;;5096526;28;20176;-69
2022/10/01 03:10:09;;;;;;;6.90;1.40;;;20.80;99.90;;;;;;5096159;28;20171;-69
2022/10/01 03:12:39;;;;;;;3.90;0.90;;;21.50;99.90;;;;;;5096135;28;20719;-70
2022/10/01 03:15:08;;;;;;;8.40;1.63;;;21.70;99.90;;;;;;5096234;28;20173;-70
2022/10/01 03:17:36;;;;;;;5.80;1.50;;;21.80;99.90;;;;;;5095929;28;20176;-72
2022/10/01 03:20:05;;;;;;;7.13;1.90;;;21.80;99.90;;;;;;5096051;28;20213;-70
2022/10/01 03:22:33;;;;;;;2.53;0.80;;;21.20;99.90;;;;;;5096270;28;20172;-71
2022/10/01 03:25:01;;;;;;;6.53;1.37;;;20.90;99.90;;;;;;5096059;28;20183;-70
2022/10/01 03:27:30;;;;;;;8.00;1.40;;;20.30;99.90;;;;;;5095928;28;20171;-69
2022/10/01 03:29:58;;;;;;;8.20;1.40;;;19.90;99.90;;;;;;5078576;28;20184;-71
2022/10/01 03:32:25;;;;;;;6.47;1.30;;;19.60;99.90;;;;;;5096266;28;20176;-72
2022/10/01 03:34:54;;;;;;;6.47;1.40;;;19.70;99.90;;;;;;5095964;28;20183;-70
2022/10/01 03:37:21;;;;;;;4.23;1.67;;;19.70;99.90;;;;;;5095511;28;20220;-69
2022/10/01 03:39:50;;;;;;;10.27;2.17;;;19.70;99.90;;;;;;5095606;28;20754;-70
2022/10/01 03:42:17;;;;;;;2.87;1.00;;;19.40;99.90;;;;;;5095544;28;20171;-70
2022/10/01 03:44:45;;;;;;;5.70;1.10;;;19.10;99.90;;;;;;5095734;28;20171;-70
2022/10/01 03:47:13;;;;;;;5.27;1.10;;;19.10;99.90;;;;;;5095621;28;20212;-70
2022/10/01 03:49:40;;;;;;;7.63;1.67;;;19.10;99.90;;;;;;5095615;28;20176;-73
2022/10/01 03:52:07;;;;;;;5.70;1.50;;;19.40;99.90;;;;;;5095038;28;20622;-71
2022/10/01 03:54:35;;;;;;;4.33;1.20;;;19.70;99.90;;;;;;5095501;28;20167;-71
2022/10/01 03:57:02;;;;;;;4.53;1.43;;;19.70;99.90;;;;;;5095417;28;20172;-73
2022/10/01 03:59:30;;;;;;;3.80;1.23;;;20.10;99.90;;;;;;5094983;28;20237;-70
2022/10/01 04:01:57;;;;;;;3.23;0.97;;;20.60;99.90;;;;;;5095267;28;20248;-70
2022/10/01 04:04:27;;;;;;;3.47;0.83;;;20.90;99.90;;;;;;5095176;28;20172;-72
2022/10/01 04:06:55;;;;;;;5.03;1.07;;;21.30;99.90;;;;;;5095364;28;20167;-69
2022/10/01 04:09:22;;;;;;;5.13;0.97;;;21.60;99.90;;;;;;5095035;28;20186;-70
2022/10/01 04:11:50;;;;;;;3.10;1.10;;;21.40;99.90;;;;;;5095081;28;20176;-70
2022/10/01 04:14:17;;;;;;;6.73;1.30;;;21.50;99.90;;;;;;5095123;28;20171;-69
2022/10/01 04:16:45;;;;;;;5.83;1.30;;;21.60;99.90;;;;;;5095073;28;20585;-69
2022/10/01 04:19:12;;;;;;;8.03;1.73;;;21.30;99.90;;;;;;5094590;28;20210;-70
2022/10/01 04:21:40;;;;;;;3.03;0.97;;;20.70;99.90;;;;;;5094828;28;20203;-69
2022/10/01 04:24:07;;;;;;;7.27;1.40;;;20.00;99.90;;;;;;5094803;28;20175;-71
2022/10/01 04:26:35;;;;;;;6.13;1.57;;;19.20;99.90;;;;;;5095182;28;20164;-71
2022/10/01 04:29:02;;;;;;;4.80;1.30;;;18.90;99.90;;;;;;5095333;28;20193;-70
2022/10/01 04:31:33;;;;;;;4.50;1.07;;;18.70;99.90;;;;;;5094677;28;20172;-69
2022/10/01 04:34:01;;;;;;;5.03;1.40;;;18.60;99.90;;;;;;5094766;28;20548;-72
2022/10/01 04:36:29;;;;;;;7.47;1.53;;;18.40;99.90;;;;;;5077042;28;20194;-70
2022/10/01 04:38:57;;;;;;;4.87;1.30;;;18.40;99.90;;;;;;5094287;28;20528;-68
2022/10/01 04:41:24;;;;;;;6.70;1.40;;;18.00;99.90;;;;;;5076283;28;20324;-76
2022/10/01 04:43:52;;;;;;;5.57;1.40;;;17.90;99.90;;;;;;5094445;28;20186;-69
2022/10/01 04:46:19;;;;;;;10.73;2.43;;;17.80;99.90;;;;;;5094238;28;20541;-70
2022/10/01 04:48:48;;;;;;;7.23;1.60;;;17.60;99.90;;;;;;5094205;28;20270;-70
2022/10/01 04:51:17;;;;;;;8.10;2.10;;;17.70;99.90;;;;;;5094524;28;20175;-75
2022/10/01 04:53:44;;;;;;;5.83;1.53;;;17.70;99.90;;;;;;5094615;28;20194;-67
2022/10/01 04:56:12;;;;;;;8.53;1.20;;;17.70;99.90;;;;;;5094274;28;20210;-72
2022/10/01 04:58:40;;;;;;;9.63;1.40;;;17.70;99.90;;;;;;5093855;28;20238;-68
2022/10/01 05:01:07;;;;;;;7.40;1.40;;;17.60;99.90;;;;;;5094003;28;20176;-73
2022/10/01 05:03:35;;;;;;;7.93;1.23;;;17.50;99.90;;;;;;5093229;28;20203;-70
2022/10/01 05:06:02;;;;;;;5.40;1.20;;;17.30;99.90;;;;;;5094398;28;20181;-69
2022/10/01 05:08:30;;;;;;;5.53;1.40;;;17.10;99.90;;;;;;5093991;28;20176;-69
2022/10/01 05:10:59;;;;;;;7.27;1.63;;;16.80;99.90;;;;;;5093983;28;20262;-68
2022/10/01 05:13:28;;;;;;;7.90;1.43;;;16.70;99.90;;;;;;5094020;28;20186;-68
2022/10/01 05:15:56;;;;;;;6.10;1.17;;;16.70;99.90;;;;;;5094095;28;20163;-69
2022/10/01 05:18:23;;;;;;;10.47;1.37;;;16.60;99.90;;;;;;5093788;28;20514;-69
2022/10/01 05:20:54;;;;;;;6.57;1.30;;;16.80;99.90;;;;;;5094144;28;20194;-68
2022/10/01 05:23:21;;;;;;;6.77;1.03;;;17.00;99.90;;;;;;5094206;28;20202;-70
2022/10/01 05:25:49;;;;;;;7.77;1.30;;;17.00;99.90;;;;;;5093953;28;20639;-70
2022/10/01 05:28:17;;;;;;;6.63;1.43;;;17.00;99.90;;;;;;5075754;28;20324;-68
2022/10/01 05:30:45;;;;;;;4.10;1.30;;;17.10;99.90;;;;;;5094020;28;20194;-70
2022/10/01 05:33:12;;;;;;;6.93;1.70;;;17.10;99.90;;;;;;5093773;28;20175;-69
2022/10/01 05:35:40;;;;;;;5.87;1.13;;;17.40;99.90;;;;;;5093917;28;20175;-68
2022/10/01 05:38:08;;;;;;;7.97;1.80;;;17.80;99.90;;;;;;5075583;28;20542;-69
2022/10/01 05:40:35;;;;;;;5.00;1.23;;;18.20;99.90;;;;;;5094220;28;20237;-70
2022/10/01 05:43:03;;;;;;;6.73;1.00;;;18.40;99.90;;;;;;5095486;28;20167;-70
2022/10/01 05:45:31;;;;;;;2.47;1.00;;;18.40;99.90;;;;;;5094303;28;20184;-71
2022/10/01 05:48:05;;;;;;;4.03;0.87;;;18.20;99.90;;;;;;5093642;28;20300;-68
2022/10/01 05:50:41;;;;;;;2.47;1.03;;;18.30;99.90;;;;;;5094166;28;20175;-69
2022/10/01 05:53:11;;;;;;;5.87;0.90;;;18.20;99.90;;;;;;5060118;28;20183;-68
2022/10/01 05:55:40;;;;;;;4.57;1.00;;;18.20;99.90;;;;;;5093314;28;20184;-69
2022/10/01 05:58:10;;;;;;;7.67;1.33;;;18.10;99.90;;;;;;5093198;28;20219;-70
2022/10/01 06:00:40;;;;;;;6.17;1.50;;;18.10;99.90;;;;;;5093404;28;20218;-69
2022/10/01 06:03:11;;;;;;;4.27;1.00;;;18.40;99.90;;;;;;5093526;28;20180;-69
2022/10/01 06:05:39;;;;;;;3.93;1.10;;;18.50;99.90;;;;;;5093339;28;20171;-69
2022/10/01 06:08:10;;;;;;;6.80;1.23;;;18.40;99.90;;;;;;5093274;28;20225;-69
2022/10/01 06:10:38;;;;;;;4.97;1.07;;;18.40;99.90;;;;;;5093111;28;20171;-69
2022/10/01 06:13:06;;;;;;;2.70;0.90;;;18.00;99.90;;;;;;5093237;28;20655;-69
2022/10/01 06:15:36;;;;;;;8.00;1.10;;;17.60;99.90;;;;;;5095324;28;20198;-69
2022/10/01 06:18:05;;;;;;;5.63;1.00;;;17.30;99.90;;;;;;5096818;28;20828;-68
2022/10/01 06:20:33;;;;;;;6.13;1.40;;;17.20;99.90;;;;;;5097304;28;20217;-69
2022/10/01 06:23:00;;;;;;;4.27;1.00;;;17.10;99.90;;;;;;5097947;28;20697;-72
2022/10/01 06:25:29;;;;;;;2.63;0.93;;;17.10;99.90;;;;;;5079151;28;20180;-73
2022/10/01 06:27:59;;;;;;;6.07;1.00;;;17.00;99.90;;;;;;5096974;28;20175;-69
2022/10/01 06:30:29;;;;;;;5.33;1.23;;;16.90;99.90;;;;;;5097376;28;20178;-70
2022/10/01 06:33:07;;;;;;;6.73;1.77;;;16.80;99.90;;;;;;5097180;28;20179;-70
2022/10/01 06:35:39;;;;;;;4.40;1.30;;;16.70;99.90;;;;;;5097403;28;20264;-69
2022/10/01 06:38:08;;;;;;;6.93;1.23;;;16.80;99.90;;;;;;5097281;28;20181;-70
2022/10/01 06:40:38;;;;;;;3.47;1.03;;;16.60;99.90;;;;;;5096693;28;20221;-70
2022/10/01 06:43:09;;;;;;;4.67;1.63;;;16.60;99.90;;;;;;5097013;28;20574;-68
2022/10/01 06:45:42;;;;;;;9.03;1.60;;;16.60;99.90;;;;;;5097289;28;20176;-69
2022/10/01 06:48:13;;;;;;;5.10;1.30;;;16.50;99.90;;;;;;5097293;28;20702;-68
2022/10/01 06:50:42;;;;;;;4.10;1.27;;;16.40;99.90;;;;;;5097186;28;20179;-69
2022/10/01 06:53:10;;;;;;;5.53;1.10;;;16.30;99.90;;;;;;5096903;28;20163;-69
2022/10/01 06:55:38;;;;;;;7.33;1.30;;;16.20;99.90;;;;;;5096843;28;20203;-70
2022/10/01 06:58:09;;;;;;;2.97;0.80;;;16.30;99.90;;;;;;5096616;28;20227;-69
2022/10/01 07:00:37;;;;;;;3.33;1.13;;;16.30;99.90;;;;;;5096843;28;20211;-70
2022/10/01 07:03:09;;;;;;;6.30;1.03;;;16.20;99.90;;;;;;5096829;28;20581;-69
2022/10/01 07:05:38;;;;;;;7.17;0.93;;;16.10;99.90;;;;;;5097293;28;20178;-69
2022/10/01 07:08:06;;;;;;;5.20;1.10;;;16.00;99.90;;;;;;5096411;28;20228;-68
2022/10/01 07:10:35;;;;;;;3.87;1.23;;;15.90;99.90;;;;;;5096469;28;20183;-71
2022/10/01 07:13:15;;;;;;;6.13;0.83;;;15.90;99.90;;;;;;5096254;28;20588;-69
2022/10/01 07:15:43;;;;;;;3.07;0.90;;;15.80;99.90;;;;;;5096435;28;20666;-69
2022/10/01 07:18:12;;;;;;;3.80;0.97;;;15.80;99.90;;;;;;5096393;28;20687;-70
2022/10/01 07:20:40;;;;;;;5.00;1.00;;;15.70;99.90;;;;;;5096238;28;20748;-70
2022/10/01 07:23:15;;;;;;;6.53;1.00;;;15.70;99.90;;;;;;5096415;28;20175;-70
2022/10/01 07:25:45;;;;;;;3.43;1.17;;;15.70;99.90;;;;;;5061386;28;20202;-70
2022/10/01 07:28:16;;;;;;;4.60;0.90;;;15.70;99.90;;;;;;5095155;28;20179;-68
2022/10/01 07:30:46;;;;;;;3.60;1.10;;;15.70;99.90;;;;;;5096216;28;20260;-69
2022/10/01 07:33:17;;;;;;;7.70;1.60;;;15.60;99.90;;;;;;5096245;28;20175;-69
2022/10/01 07:35:46;;;;;;;7.57;2.10;;;15.60;99.90;;;;;;5096068;28;20184;-69
2022/10/01 07:38:14;;;;;;;6.27;1.53;;;15.60;99.90;;;;;;5077478;28;20212;-69
2022/10/01 07:40:42;;;;;;;6.27;1.50;;;15.50;99.90;;;;;;5095990;28;20218;-70
2022/10/01 07:43:09;;;;;;;4.07;1.53;;;15.50;99.90;;;;;;5096077;28;20248;-69
2022/10/01 07:45:37;;;;;;;8.47;1.57;;;15.30;99.90;;;;;;5095814;28;20190;-70
2022/10/01 07:48:06;;;;;;;5.87;1.47;;;15.30;99.90;;;;;;5095812;28;20179;-70
2022/10/01 07:50:33;;;;;;;5.90;1.43;;;15.20;99.90;;;;;;5095637;28;20167;-69
2022/10/01 07:53:01;;;;;;;6.47;1.60;;;15.20;99.90;;;;;;5095575;28;20193;-68
2022/10/01 07:55:31;;;;;;;9.53;1.53;;;15.10;99.90;;;;;;5095966;28;20266;-69
2022/10/01 07:58:00;;;;;;;5.10;1.47;;;15.00;99.90;;;;;;5077220;28;20250;-69
2022/10/01 08:00:30;;;;;;;9.03;1.33;;;15.00;99.90;;;;;;5095738;28;20219;-69
2022/10/01 08:02:58;;;;;;;8.17;1.80;;;14.80;99.90;;;;;;5095943;28;20187;-68
2022/10/01 08:05:28;;;;;;;4.67;1.63;;;14.80;99.90;;;;;;5095753;28;20175;-69
2022/10/01 08:08:03;;;;;;;5.67;2.27;;;14.70;99.90;;;;;;5095554;28;20265;-68
2022/10/01 08:10:35;;;;;;;5.80;1.57;;;14.70;99.90;;;;;;5095506;28;20282;-69
2022/10/01 08:13:10;;;;;;;3.97;1.57;;;14.70;99.90;;;;;;5095244;28;20180;-68
2022/10/01 08:15:37;;;;;;;4.40;1.40;;;14.60;99.90;;;;;;5077264;28;20266;-69
2022/10/01 08:18:05;;;;;;;8.30;1.80;;;14.60;99.90;;;;;;5095120;28;20179;-69
2022/10/01 08:20:34;;;;;;;8.30;1.73;;;14.60;99.90;;;;;;5095189;28;20203;-69
2022/10/01 08:23:03;;;;;;;3.93;1.60;;;14.60;99.90;;;;;;5094983;28;20175;-69
2022/10/01 08:25:30;;;;;;;9.40;1.73;;;14.40;99.90;;;;;;5094975;28;20182;-69
2022/10/01 08:27:59;;;;;;;4.80;1.40;;;14.40;99.90;;;;;;5095066;28;20179;-68
2022/10/01 08:30:27;;;;;;;4.93;1.70;;;14.20;99.90;;;;;;5095112;28;20321;-69
2022/10/01 08:32:59;;;;;;;8.17;2.20;;;14.10;99.90;;;;;;5094971;28;20521;-69
2022/10/01 08:35:28;;;;;;;5.77;1.80;;;14.00;99.90;;;;;;5094832;28;20177;-70
2022/10/01 08:38:04;;;;;;;5.37;1.60;;;14.00;99.90;;;;;;5094276;28;20279;-69
2022/10/01 08:40:41;;;;;;;8.70;1.73;;;13.90;99.90;;;;;;5094176;28;20214;-70
2022/10/01 08:43:37;;;;;;;9.77;1.43;;;13.80;99.90;;;;;;5093726;28;20190;-67
2022/10/01 08:46:27;;;;;;;8.40;2.23;;;13.80;99.90;;;;;;5093618;28;20183;-68
2022/10/01 08:49:17;;;;;;;6.40;1.87;;;13.80;99.90;;;;;;5094814;28;20259;-68
2022/10/01 08:52:02;;;;;;;7.67;1.90;;;13.70;99.90;;;;;;5094834;28;20167;-68
2022/10/01 08:54:29;;;;;;;10.03;2.37;;;13.70;99.90;;;;;;5076455;28;20315;-69
2022/10/01 08:57:00;;;;;;;4.13;1.97;;;13.70;99.90;;;;;;5076295;28;20197;-69
2022/10/01 09:00:00;;;;;;;11.33;2.73;;;13.70;99.90;;;;;;5093955;28;20311;-68
2022/10/01 09:02:32;;;;;;;13.63;3.60;;;13.60;99.90;;;;;;5094430;28;20175;-68
2022/10/01 09:05:05;;;;;;;6.37;2.87;;;13.60;99.90;;;;;;5094339;28;20525;-68
2022/10/01 09:07:48;;;;;;;8.63;2.97;;;13.50;99.90;;;;;;5094609;28;20304;-67
2022/10/01 09:10:23;;;;;;;5.83;2.83;;;13.50;99.90;;;;;;5094689;28;20219;-69
2022/10/01 09:12:57;;;;;;;9.20;3.47;;;13.40;99.90;;;;;;5076274;28;20289;-69
2022/10/01 09:15:30;;;;;;;12.53;3.87;;;13.30;99.90;;;;;;5094004;28;20639;-69
2022/10/01 09:18:25;;;;;;;9.30;3.23;;;13.20;99.90;;;;;;5094595;28;20206;-68
2022/10/01 09:20:56;;;;;;;12.93;3.73;;;13.10;99.90;;;;;;5094336;28;20225;-69
2022/10/01 09:23:31;;;;;;;7.43;3.17;;;12.90;99.90;;;;;;5094262;28;20173;-70
2022/10/01 09:25:59;;;;;;;10.03;3.53;;;12.90;99.90;;;;;;5094083;28;20170;-68
2022/10/01 09:28:32;;;;;;;10.73;3.50;;;12.80;99.90;;;;;;5076242;28;20177;-69
2022/10/01 09:31:11;;;;;;;10.60;3.30;;;12.70;99.90;;;;;;5093805;28;20655;-70
2022/10/01 09:33:44;;;;;;;7.83;2.90;;;12.70;99.90;;;;;;5093979;28;20220;-73
2022/10/01 09:36:32;;;;;;;12.23;2.60;;;12.60;99.90;;;;;;5094162;28;20179;-69
2022/10/01 09:39:19;;;;;;;5.90;3.07;;;12.50;99.90;;;;;;5093806;28;20221;-68
2022/10/01 09:41:47;;;;;;;8.77;3.40;;;12.50;99.90;;;;;;5094148;28;20251;-69
2022/10/01 09:44:28;;;;;;;10.37;3.37;;;12.40;99.90;;;;;;5093911;28;20687;-69
2022/10/01 09:46:56;;;;;;;6.63;2.73;;;12.40;99.90;;;;;;5093864;28;20553;-69
2022/10/01 09:49:38;;;;;;;8.83;3.17;;;12.40;99.90;;;;;;5093171;28;20209;-69
2022/10/01 09:52:33;;;;;;;7.17;3.30;;;12.30;99.90;;;;;;5093789;28;20269;-69
2022/10/01 09:55:18;;;;;;;8.40;2.60;;;12.30;99.90;;;;;;5081727;28;20541;-68
2022/10/01 09:57:57;;;;;;;8.37;2.97;;;12.30;99.90;;;;;;5093518;28;20187;-68
2022/10/01 10:00:27;;;;;;;6.27;3.17;;;12.30;99.90;;;;;;5093469;28;20282;-68
2022/10/01 10:03:06;;;;;;;10.10;3.13;;;12.20;99.90;;;;;;5060975;28;20231;-69
2022/10/01 10:05:51;;;;;;;11.30;3.27;;;12.20;99.90;;;;;;5093564;28;20182;-69
2022/10/01 10:08:39;;;;;;;10.03;3.27;;;12.20;99.90;;;;;;5093235;28;20227;-69
2022/10/01 10:11:10;;;;;;;9.73;2.97;;;12.30;99.90;;;;;;5091410;28;20252;-69
2022/10/01 10:13:48;;;;;;;12.60;3.30;;;12.40;99.90;;;;;;5093138;28;20181;-70
2022/10/01 10:16:19;;;;;;;9.50;3.40;;;12.50;99.90;;;;;;5093186;28;20257;-69
2022/10/01 10:18:52;;;;;;;7.20;3.10;;;12.50;99.90;;;;;;5092950;28;20268;-69
2022/10/01 10:21:26;;;;;;;10.60;3.23;;;12.50;99.90;;;;;;5074790;28;20190;-68
2022/10/01 10:24:01;;;;;;;8.23;2.70;;;12.50;99.90;;;;;;5092841;28;20624;-69
2022/10/01 10:26:38;;;;;;;9.37;3.50;;;12.40;99.90;;;;;;5074817;28;20189;-70
2022/10/01 10:29:08;;;;;;;9.33;3.37;;;12.30;99.90;;;;;;5093053;28;20189;-69
2022/10/01 10:31:42;;;;;;;6.50;3.00;;;12.30;99.90;;;;;;5093289;28;20178;-69
2022/10/01 10:34:21;;;;;;;7.43;2.80;;;12.30;99.90;;;;;;5075231;28;20705;-71
2022/10/01 10:36:55;;;;;;;6.50;2.47;;;12.20;99.90;;;;;;5093115;28;20209;-69
2022/10/01 10:39:30;;;;;;;8.23;2.50;;;12.20;99.90;;;;;;5092751;28;20271;-69
2022/10/01 10:41:59;;;;;;;11.33;2.90;;;12.20;99.90;;;;;;5075122;28;20214;-69
2022/10/01 10:44:39;;;;;;;7.20;3.10;;;12.20;99.90;;;;;;5093122;28;20207;-70
2022/10/01 10:47:17;;;;;;;8.30;3.30;;;12.20;99.90;;;;;;5093195;28;20703;-69
2022/10/01 10:49:57;;;;;;;15.37;3.60;;;12.30;99.90;;;;;;5092884;28;20261;-70
2022/10/01 10:52:32;;;;;;;7.73;2.70;;;12.30;99.90;;;;;;5093054;28;20304;-68
2022/10/01 10:55:01;;;;;;;8.33;3.40;;;12.30;99.90;;;;;;5092804;28;20181;-69
2022/10/01 10:57:31;;;;;;;11.07;3.23;;;12.30;99.90;;;;;;5092740;28;20175;-69
2022/10/01 11:00:07;;;;;;;12.07;3.10;;;12.40;99.90;;;;;;5092487;28;20232;-69
2022/10/01 11:02:36;;;;;;;5.47;3.00;;;12.40;99.90;;;;;;5094745;28;20260;-69
2022/10/01 11:05:24;;;;;;;9.40;2.33;;;12.40;99.90;;;;;;5096682;28;20175;-69
2022/10/01 11:08:03;;;;;;;9.60;2.50;;;12.40;99.90;;;;;;5096518;28;20170;-69
2022/10/01 11:11:07;;;;;;;6.73;2.50;;;12.40;99.90;;;;;;5078286;28;20522;-70
2022/10/01 11:13:42;;;;;;;7.93;2.97;;;12.40;99.90;;;;;;5096372;28;20645;-70
2022/10/01 11:16:09;;;;;;;6.00;2.40;;;12.50;99.90;;;;;;5096798;28;20227;-69
2022/10/01 11:19:02;;;;;;;6.93;2.20;;;12.50;99.90;;;;;;5077939;28;20183;-70
2022/10/01 11:21:36;;;;;;;4.33;2.03;;;12.50;99.90;;;;;;5096480;28;20179;-69
2022/10/01 11:24:25;;;;;;;10.73;3.13;;;12.50;99.90;;;;;;5096254;28;20526;-68
2022/10/01 11:27:11;;;;;;;12.70;4.30;;;12.50;99.90;;;;;;5096592;28;20166;-69
2022/10/01 11:30:00;;;;;;;13.60;6.10;;;12.40;99.90;;;;;;5096003;28;20529;-74
2022/10/01 11:32:35;;;;;;;14.40;6.80;;;12.40;99.90;;;;;;5095900;28;20189;-68
2022/10/01 11:35:25;;;;;;;16.10;7.77;;;12.30;99.90;;;;;;5096157;28;20189;-68
2022/10/01 11:38:17;;;;;;;21.27;7.37;;;12.30;99.90;;;;;;5095724;28;20176;-68
2022/10/01 11:40:52;;;;;;;8.40;4.77;;;12.20;99.90;;;;;;5095640;28;20660;-68
2022/10/01 11:43:52;;;;;;;9.63;3.43;;;12.10;99.90;;;;;;5095736;28;20176;-68
2022/10/01 11:46:53;;;;;;;5.83;2.40;;;12.10;99.90;;;;;;5095625;28;20173;-68
2022/10/01 11:49:30;;;;;;;5.30;2.13;;;12.10;99.90;;;;;;5091020;28;20274;-69
2022/10/01 11:52:05;;;;;;;10.80;2.40;;;12.00;99.90;;;;;;5096094;28;20170;-69
2022/10/01 11:54:38;;;;;;;5.83;2.57;;;12.00;99.90;;;;;;5095948;28;20309;-69
2022/10/01 12:00:10;;;;;;;8.87;2.37;;;12.00;99.90;;;;;;5095184;28;20244;-68
2022/10/01 12:02:46;;;;;;;6.83;2.47;;;12.00;99.90;;;;;;5095520;28;20577;-68
2022/10/01 12:05:26;;;;;;;4.97;2.17;;;11.90;99.90;;;;;;5095288;28;20290;-69
2022/10/01 12:08:01;;;;;;;8.40;2.60;;;11.90;99.90;;;;;;5060484;28;20188;-69
2022/10/01 12:11:15;;;;;;;3.80;1.90;;;11.80;99.90;;;;;;5095428;28;20168;-68
2022/10/01 12:13:55;;;;;;;6.63;2.27;;;11.80;99.90;;;;;;5013011;28;20186;-69
2022/10/01 12:16:49;;;;;;;4.63;1.80;;;11.80;99.90;;;;;;5013099;28;20194;-69
2022/10/01 12:19:20;;;;;;;4.90;1.70;;;11.70;99.90;;;;;;5075474;28;20217;-68
2022/10/01 12:22:00;;;;;;;5.27;1.97;;;11.70;99.90;;;;;;5095060;28;20179;-69
2022/10/01 12:24:46;;;;;;;5.67;1.90;;;11.70;99.90;;;;;;5076900;28;20184;-68
2022/10/01 12:27:32;;;;;;;5.23;1.93;;;11.70;99.90;;;;;;5094993;28;20181;-68
2022/10/01 12:30:05;;;;;;;5.87;1.73;;;11.70;99.90;;;;;;5094919;28;20179;-73
2022/10/01 12:32:51;;;;;;;4.40;1.73;;;11.70;99.90;;;;;;5095333;28;20178;-68
2022/10/01 12:35:34;;;;;;;3.70;1.50;;;11.80;99.90;;;;;;5094701;28;20605;-69
2022/10/01 12:38:33;;;;;;;6.60;1.70;;;11.80;99.90;;;;;;5094608;28;20181;-68
2022/10/01 12:41:32;;;;;;;6.33;2.00;;;11.90;99.90;;;;;;5094714;28;20185;-68
2022/10/01 12:44:36;;;;;;;5.60;1.73;;;12.00;99.90;;;;;;5094734;28;20188;-68
2022/10/01 12:47:35;;;;;;;5.00;2.30;;;12.00;99.90;;;;;;5076120;28;20208;-68
2022/10/01 12:50:48;;;;;;;3.40;1.90;;;12.00;99.90;;;;;;5094344;28;20249;-68
2022/10/01 12:53:56;;;;;;;5.47;2.10;;;12.00;99.90;;;;;;4992797;28;20687;-68
2022/10/01 12:56:52;;;;;;;3.03;1.80;;;12.00;99.90;;;;;;4993154;28;20192;-68
2022/10/01 12:59:50;;;;;;;6.13;1.90;;;12.00;99.90;;;;;;5074122;28;20291;-70
2022/10/01 13:02:42;;;;;;;5.30;1.53;;;12.00;99.90;;;;;;5094173;28;20185;-69
2022/10/01 13:05:15;;;;;;;4.63;1.73;;;12.10;99.90;;;;;;5094369;28;20268;-69
2022/10/01 13:07:57;;;;;;;6.83;1.83;;;12.10;99.90;;;;;;5094885;28;20262;-69
2022/10/01 13:10:44;;;;;;;5.90;1.87;;;12.10;99.90;;;;;;5094292;28;20173;-69
2022/10/01 13:13:34;;;;;;;3.47;1.80;;;12.10;99.90;;;;;;5075941;28;20185;-69
2022/10/01 13:16:10;;;;;;;3.63;1.80;;;12.10;99.90;;;;;;5075931;28;20184;-69
2022/10/01 13:18:55;;;;;;;5.27;1.73;;;12.10;99.90;;;;;;5093658;28;20181;-68
2022/10/01 13:22:10;;;;;;;6.33;1.77;;;12.10;99.90;;;;;;5094393;28;20292;-68
2022/10/01 13:24:49;;;;;;;5.53;1.80;;;12.20;99.90;;;;;;5042713;28;20196;-68
2022/10/01 13:27:39;;;;;;;7.10;1.50;;;12.10;99.90;;;;;;5063509;28;20280;-70